N610DS KPWM-KHVN
Flight info
| Callsign | N610DS |
|---|---|
| Flight time | N/A |
| Altitude | 24000 |
| Route | CLOWW WITNY HFD |
| Aircraft | B60T/L-SDFGRY/C |
Departure
| Time | 2026-05-06 19:00 |
|---|---|
| Airport | Portland International Jetport (KPWM) |
Arrival
| Time | N/A |
|---|---|
| Airport | Tweed New Haven Airport (KHVN) |
| Time | Latitude | Longitude | Altitude | Speed | Heading |
|---|---|---|---|---|---|
| 2026-05-06 18:44 | 43.64989 | -70.30802 | 54 ft | 0 kts | 359° |
| 2026-05-06 18:57 | 43.65008 | -70.30801 | 54 ft | 10 kts | 7° |
| 2026-05-06 18:57 | 43.65116 | -70.30734 | 52 ft | 19 kts | 13° |
| 2026-05-06 18:57 | 43.65227 | -70.30766 | 50 ft | 16 kts | 339° |
| 2026-05-06 18:58 | 43.65315 | -70.30810 | 52 ft | 11 kts | 339° |
| 2026-05-06 18:58 | 43.65346 | -70.30826 | 51 ft | 0 kts | 342° |
| 2026-05-06 18:59 | 43.65357 | -70.30830 | 52 ft | 7 kts | 342° |
| 2026-05-06 18:59 | 43.65426 | -70.30766 | 53 ft | 22 kts | 78° |
| 2026-05-06 18:59 | 43.65223 | -70.30640 | 51 ft | 62 kts | 163° |
| 2026-05-06 19:00 | 43.64611 | -70.30374 | 172 ft | 108 kts | 164° |
| 2026-05-06 19:00 | 43.63817 | -70.29983 | 696 ft | 131 kts | 162° |
| 2026-05-06 19:00 | 43.62956 | -70.29621 | 1511 ft | 124 kts | 175° |
| 2026-05-06 19:00 | 43.62407 | -70.29411 | 2055 ft | 125 kts | 171° |
| 2026-05-06 19:01 | 43.61245 | -70.28682 | 2703 ft | 154 kts | 166° |
| 2026-05-06 19:01 | 43.60200 | -70.28002 | 2864 ft | 176 kts | 165° |
| 2026-05-06 19:01 | 43.59033 | -70.27319 | 2933 ft | 183 kts | 176° |
| 2026-05-06 19:01 | 43.58004 | -70.27628 | 3673 ft | 138 kts | 219° |
| 2026-05-06 19:02 | 43.57402 | -70.28572 | 4504 ft | 127 kts | 234° |
| 2026-05-06 19:02 | 43.56930 | -70.29561 | 5267 ft | 120 kts | 232° |
| 2026-05-06 19:02 | 43.56437 | -70.30472 | 6013 ft | 117 kts | 230° |
| 2026-05-06 19:02 | 43.55960 | -70.31356 | 6714 ft | 116 kts | 230° |
| 2026-05-06 19:03 | 43.55485 | -70.32249 | 7420 ft | 115 kts | 230° |
| 2026-05-06 19:03 | 43.55019 | -70.33131 | 8141 ft | 114 kts | 230° |
| 2026-05-06 19:03 | 43.54567 | -70.33991 | 8955 ft | 107 kts | 230° |
| 2026-05-06 19:03 | 43.54139 | -70.34801 | 9757 ft | 103 kts | 229° |
| 2026-05-06 19:04 | 43.53723 | -70.35586 | 10466 ft | 100 kts | 230° |
| 2026-05-06 19:04 | 43.53318 | -70.36354 | 11161 ft | 98 kts | 230° |
| 2026-05-06 19:04 | 43.52912 | -70.37121 | 11787 ft | 102 kts | 230° |
| 2026-05-06 19:04 | 43.52486 | -70.37926 | 12386 ft | 106 kts | 231° |
| 2026-05-06 19:05 | 43.52047 | -70.38764 | 13039 ft | 109 kts | 232° |
| 2026-05-06 19:05 | 43.51601 | -70.39617 | 13719 ft | 110 kts | 232° |
| 2026-05-06 19:05 | 43.51152 | -70.40475 | 14336 ft | 110 kts | 233° |
| 2026-05-06 19:05 | 43.50704 | -70.41333 | 14955 ft | 110 kts | 233° |
| 2026-05-06 19:06 | 43.50256 | -70.42188 | 15553 ft | 110 kts | 233° |
| 2026-05-06 19:06 | 43.49808 | -70.43036 | 16133 ft | 109 kts | 233° |
| 2026-05-06 19:06 | 43.49364 | -70.43882 | 16719 ft | 109 kts | 234° |
| 2026-05-06 19:06 | 43.48919 | -70.44726 | 17279 ft | 109 kts | 234° |
| 2026-05-06 19:07 | 43.48473 | -70.45566 | 17855 ft | 108 kts | 234° |
| 2026-05-06 19:07 | 43.48180 | -70.46121 | 18231 ft | 108 kts | 234° |
| 2026-05-06 19:07 | 43.47590 | -70.47242 | 18915 ft | 108 kts | 234° |
| 2026-05-06 19:07 | 43.47156 | -70.48067 | 19414 ft | 108 kts | 234° |
| 2026-05-06 19:08 | 43.46708 | -70.48918 | 19869 ft | 111 kts | 234° |
| 2026-05-06 19:08 | 43.46252 | -70.49786 | 20347 ft | 113 kts | 234° |
| 2026-05-06 19:08 | 43.45791 | -70.50664 | 20824 ft | 114 kts | 234° |
| 2026-05-06 19:08 | 43.45326 | -70.51547 | 21300 ft | 114 kts | 233° |
| 2026-05-06 19:09 | 43.44858 | -70.52434 | 21808 ft | 115 kts | 233° |
| 2026-05-06 19:09 | 43.44390 | -70.53323 | 22315 ft | 115 kts | 233° |
| 2026-05-06 19:09 | 43.43919 | -70.54215 | 22797 ft | 115 kts | 233° |
| 2026-05-06 19:09 | 43.43448 | -70.55107 | 23249 ft | 115 kts | 233° |
| 2026-05-06 19:10 | 43.42977 | -70.56001 | 23640 ft | 115 kts | 233° |
| 2026-05-06 19:10 | 43.42477 | -70.56944 | 23787 ft | 133 kts | 233° |
| 2026-05-06 19:10 | 43.41893 | -70.58056 | 23814 ft | 154 kts | 234° |
| 2026-05-06 19:10 | 43.41231 | -70.59327 | 23820 ft | 172 kts | 234° |
| 2026-05-06 19:11 | 43.40502 | -70.60726 | 23825 ft | 187 kts | 234° |
| 2026-05-06 19:11 | 43.39720 | -70.62224 | 23820 ft | 198 kts | 234° |
| 2026-05-06 19:11 | 43.38896 | -70.63794 | 23818 ft | 206 kts | 234° |
| 2026-05-06 19:11 | 43.38045 | -70.65414 | 23815 ft | 212 kts | 234° |
| 2026-05-06 19:12 | 43.37171 | -70.67071 | 23817 ft | 216 kts | 234° |
| 2026-05-06 19:12 | 43.36282 | -70.68753 | 23817 ft | 219 kts | 234° |
| 2026-05-06 19:12 | 43.35382 | -70.70453 | 23818 ft | 221 kts | 234° |
| 2026-05-06 19:12 | 43.34472 | -70.72172 | 23816 ft | 223 kts | 234° |
| 2026-05-06 19:13 | 43.33556 | -70.73899 | 23818 ft | 224 kts | 234° |
| 2026-05-06 19:13 | 43.32636 | -70.75633 | 23819 ft | 225 kts | 234° |
| 2026-05-06 19:13 | 43.31722 | -70.77353 | 23820 ft | 226 kts | 234° |
| 2026-05-06 19:13 | 43.30795 | -70.79098 | 23819 ft | 227 kts | 234° |
| 2026-05-06 19:14 | 43.29864 | -70.80849 | 23813 ft | 226 kts | 234° |
| 2026-05-06 19:14 | 43.28942 | -70.82593 | 23819 ft | 225 kts | 234° |
| 2026-05-06 19:14 | 43.28025 | -70.84332 | 23820 ft | 224 kts | 234° |
| 2026-05-06 19:14 | 43.27108 | -70.86064 | 23818 ft | 224 kts | 234° |
| 2026-05-06 19:15 | 43.26191 | -70.87791 | 23816 ft | 223 kts | 234° |
| 2026-05-06 19:15 | 43.25276 | -70.89509 | 23814 ft | 223 kts | 234° |
| 2026-05-06 19:15 | 43.24363 | -70.91221 | 23811 ft | 221 kts | 234° |
| 2026-05-06 19:15 | 43.23455 | -70.92921 | 23813 ft | 220 kts | 234° |
| 2026-05-06 19:16 | 43.22549 | -70.94615 | 23814 ft | 220 kts | 234° |
| 2026-05-06 19:16 | 43.21952 | -70.95731 | 23814 ft | 219 kts | 234° |
| 2026-05-06 19:16 | 43.21051 | -70.97415 | 23813 ft | 219 kts | 234° |
| 2026-05-06 19:16 | 43.20152 | -70.99096 | 23813 ft | 218 kts | 234° |
| 2026-05-06 19:17 | 43.19255 | -71.00769 | 23812 ft | 218 kts | 234° |
| 2026-05-06 19:17 | 43.18361 | -71.02436 | 23805 ft | 217 kts | 234° |
| 2026-05-06 19:17 | 43.17469 | -71.04098 | 23809 ft | 216 kts | 234° |
| 2026-05-06 19:17 | 43.16581 | -71.05750 | 23808 ft | 215 kts | 234° |
| 2026-05-06 19:18 | 43.15693 | -71.07403 | 23806 ft | 215 kts | 234° |
| 2026-05-06 19:18 | 43.14808 | -71.09051 | 23807 ft | 215 kts | 234° |
| 2026-05-06 19:18 | 43.13921 | -71.10700 | 23805 ft | 215 kts | 234° |
| 2026-05-06 19:18 | 43.13035 | -71.12348 | 23803 ft | 215 kts | 234° |
| 2026-05-06 19:19 | 43.12151 | -71.13991 | 23803 ft | 214 kts | 234° |
| 2026-05-06 19:19 | 43.11269 | -71.15629 | 23800 ft | 213 kts | 234° |
| 2026-05-06 19:19 | 43.10389 | -71.17262 | 23802 ft | 213 kts | 234° |
| 2026-05-06 19:19 | 43.09509 | -71.18893 | 23799 ft | 212 kts | 234° |
| 2026-05-06 19:20 | 43.08634 | -71.20516 | 23798 ft | 212 kts | 234° |
| 2026-05-06 19:20 | 43.07760 | -71.22134 | 23798 ft | 211 kts | 234° |
| 2026-05-06 19:20 | 43.06888 | -71.23749 | 23796 ft | 211 kts | 234° |
| 2026-05-06 19:20 | 43.06018 | -71.25360 | 23794 ft | 210 kts | 234° |
| 2026-05-06 19:21 | 43.05152 | -71.26962 | 23801 ft | 209 kts | 234° |
| 2026-05-06 19:21 | 43.04287 | -71.28561 | 23796 ft | 209 kts | 234° |
| 2026-05-06 19:21 | 43.03425 | -71.30154 | 23796 ft | 208 kts | 234° |
| 2026-05-06 19:21 | 43.02573 | -71.31727 | 23797 ft | 208 kts | 234° |
| 2026-05-06 19:22 | 43.01715 | -71.33313 | 23796 ft | 207 kts | 234° |
| 2026-05-06 19:22 | 43.00860 | -71.34889 | 23792 ft | 206 kts | 234° |
| 2026-05-06 19:22 | 43.00005 | -71.36465 | 23792 ft | 207 kts | 234° |
| 2026-05-06 19:22 | 42.99148 | -71.38043 | 23794 ft | 207 kts | 234° |
| 2026-05-06 19:23 | 42.98290 | -71.39625 | 23798 ft | 208 kts | 234° |
| 2026-05-06 19:23 | 42.97429 | -71.41211 | 23797 ft | 208 kts | 234° |
| 2026-05-06 19:23 | 42.96566 | -71.42801 | 23793 ft | 208 kts | 234° |
| 2026-05-06 19:23 | 42.95702 | -71.44389 | 23793 ft | 208 kts | 234° |
| 2026-05-06 19:24 | 42.94840 | -71.45974 | 23796 ft | 208 kts | 234° |
| 2026-05-06 19:24 | 42.93979 | -71.47557 | 23793 ft | 208 kts | 234° |
| 2026-05-06 19:24 | 42.93117 | -71.49139 | 23795 ft | 207 kts | 234° |
| 2026-05-06 19:24 | 42.92257 | -71.50718 | 23790 ft | 207 kts | 234° |
| 2026-05-06 19:25 | 42.91399 | -71.52292 | 23797 ft | 207 kts | 234° |
| 2026-05-06 19:25 | 42.90543 | -71.53863 | 23795 ft | 206 kts | 234° |
| 2026-05-06 19:25 | 42.89688 | -71.55430 | 23793 ft | 206 kts | 234° |
| 2026-05-06 19:25 | 42.88834 | -71.56994 | 23796 ft | 205 kts | 234° |
| 2026-05-06 19:26 | 42.87982 | -71.58553 | 23803 ft | 205 kts | 234° |
| 2026-05-06 19:26 | 42.87129 | -71.60113 | 23803 ft | 205 kts | 234° |
| 2026-05-06 19:26 | 42.86276 | -71.61672 | 23808 ft | 206 kts | 234° |
| 2026-05-06 19:26 | 42.85419 | -71.63240 | 23804 ft | 206 kts | 234° |
| 2026-05-06 19:27 | 42.84562 | -71.64806 | 23806 ft | 207 kts | 234° |
| 2026-05-06 19:27 | 42.83700 | -71.66380 | 23807 ft | 207 kts | 234° |
| 2026-05-06 19:27 | 42.82847 | -71.67936 | 23804 ft | 208 kts | 234° |
| 2026-05-06 19:27 | 42.81980 | -71.69517 | 23803 ft | 209 kts | 234° |
| 2026-05-06 19:28 | 42.81111 | -71.71102 | 23804 ft | 209 kts | 234° |
| 2026-05-06 19:28 | 42.80239 | -71.72690 | 23807 ft | 210 kts | 235° |
| 2026-05-06 19:28 | 42.79364 | -71.74285 | 23807 ft | 211 kts | 235° |
| 2026-05-06 19:28 | 42.78483 | -71.75890 | 23808 ft | 212 kts | 235° |
| 2026-05-06 19:29 | 42.77597 | -71.77503 | 23810 ft | 213 kts | 234° |
| 2026-05-06 19:29 | 42.76707 | -71.79119 | 23816 ft | 214 kts | 234° |
| 2026-05-06 19:29 | 42.75813 | -71.80745 | 23814 ft | 215 kts | 234° |
| 2026-05-06 19:29 | 42.74913 | -71.82381 | 23817 ft | 216 kts | 235° |
| 2026-05-06 19:30 | 42.74009 | -71.84023 | 23818 ft | 218 kts | 234° |
| 2026-05-06 19:30 | 42.72974 | -71.85534 | 23812 ft | 222 kts | 220° |
| 2026-05-06 19:30 | 42.71542 | -71.86424 | 23813 ft | 230 kts | 208° |
| 2026-05-06 19:30 | 42.70053 | -71.87211 | 23814 ft | 230 kts | 210° |
| 2026-05-06 19:31 | 42.68576 | -71.88059 | 23813 ft | 231 kts | 211° |
| 2026-05-06 19:31 | 42.67096 | -71.88921 | 23813 ft | 232 kts | 211° |
| 2026-05-06 19:31 | 42.64104 | -71.90636 | 23862 ft | 233 kts | 210° |
| 2026-05-06 19:32 | 42.62584 | -71.91496 | 23539 ft | 234 kts | 210° |
| 2026-05-06 19:32 | 42.61113 | -71.92331 | 23162 ft | 226 kts | 210° |
| 2026-05-06 19:32 | 42.59680 | -71.93146 | 22737 ft | 221 kts | 210° |
| 2026-05-06 19:32 | 42.58274 | -71.93941 | 22310 ft | 218 kts | 211° |
| 2026-05-06 19:33 | 42.56884 | -71.94726 | 21912 ft | 215 kts | 210° |
| 2026-05-06 19:33 | 42.55523 | -71.95492 | 21526 ft | 214 kts | 211° |
| 2026-05-06 19:33 | 42.54151 | -71.96266 | 21144 ft | 213 kts | 211° |
| 2026-05-06 19:33 | 42.52782 | -71.97039 | 20761 ft | 213 kts | 211° |
| 2026-05-06 19:34 | 42.51411 | -71.97800 | 20403 ft | 212 kts | 211° |
| 2026-05-06 19:34 | 42.50050 | -71.98557 | 20055 ft | 211 kts | 211° |
| 2026-05-06 19:34 | 42.48696 | -71.99318 | 19710 ft | 210 kts | 211° |
| 2026-05-06 19:34 | 42.47350 | -72.00079 | 19368 ft | 209 kts | 211° |
| 2026-05-06 19:35 | 42.46010 | -72.00836 | 19021 ft | 208 kts | 211° |
| 2026-05-06 19:35 | 42.44675 | -72.01589 | 18703 ft | 208 kts | 211° |
| 2026-05-06 19:35 | 42.43341 | -72.02341 | 18370 ft | 207 kts | 212° |
| 2026-05-06 19:35 | 42.42007 | -72.03092 | 18030 ft | 207 kts | 212° |
| 2026-05-06 19:36 | 42.40676 | -72.03841 | 17664 ft | 207 kts | 212° |
| 2026-05-06 19:36 | 42.39349 | -72.04587 | 17312 ft | 206 kts | 211° |
| 2026-05-06 19:36 | 42.38026 | -72.05328 | 16955 ft | 205 kts | 211° |
| 2026-05-06 19:36 | 42.36713 | -72.06063 | 16608 ft | 203 kts | 211° |
| 2026-05-06 19:37 | 42.35426 | -72.06782 | 16271 ft | 198 kts | 211° |
| 2026-05-06 19:37 | 42.34173 | -72.07491 | 15944 ft | 196 kts | 212° |
| 2026-05-06 19:37 | 42.32919 | -72.08197 | 15606 ft | 194 kts | 211° |
| 2026-05-06 19:37 | 42.31674 | -72.08892 | 15286 ft | 193 kts | 211° |
| 2026-05-06 19:38 | 42.30433 | -72.09581 | 14914 ft | 193 kts | 211° |
| 2026-05-06 19:38 | 42.29203 | -72.10265 | 14502 ft | 190 kts | 211° |
| 2026-05-06 19:38 | 42.27989 | -72.10942 | 14091 ft | 187 kts | 211° |
| 2026-05-06 19:38 | 42.26789 | -72.11607 | 13701 ft | 185 kts | 211° |
| 2026-05-06 19:39 | 42.25605 | -72.12265 | 13260 ft | 183 kts | 211° |
| 2026-05-06 19:39 | 42.24430 | -72.12919 | 12807 ft | 181 kts | 211° |
| 2026-05-06 19:39 | 42.23270 | -72.13565 | 12363 ft | 179 kts | 211° |
| 2026-05-06 19:39 | 42.22122 | -72.14206 | 11934 ft | 177 kts | 210° |
| 2026-05-06 19:40 | 42.20990 | -72.14838 | 11508 ft | 176 kts | 210° |
| 2026-05-06 19:40 | 42.19848 | -72.15475 | 11114 ft | 179 kts | 210° |
| 2026-05-06 19:40 | 42.18691 | -72.16123 | 10720 ft | 180 kts | 209° |
| 2026-05-06 19:40 | 42.17549 | -72.16760 | 10353 ft | 180 kts | 209° |
| 2026-05-06 19:41 | 42.16448 | -72.17367 | 9973 ft | 162 kts | 210° |
| 2026-05-06 19:41 | 42.15409 | -72.17939 | 9587 ft | 163 kts | 210° |
| 2026-05-06 19:41 | 42.14351 | -72.18530 | 9158 ft | 166 kts | 209° |
| 2026-05-06 19:41 | 42.13276 | -72.19132 | 8750 ft | 168 kts | 209° |
| 2026-05-06 19:42 | 42.12194 | -72.19737 | 8360 ft | 169 kts | 208° |
| 2026-05-06 19:42 | 42.11120 | -72.20332 | 7966 ft | 164 kts | 207° |
| 2026-05-06 19:42 | 42.10079 | -72.20903 | 7554 ft | 160 kts | 207° |
| 2026-05-06 19:42 | 42.09057 | -72.21464 | 7176 ft | 158 kts | 208° |
| 2026-05-06 19:43 | 42.08043 | -72.22023 | 6825 ft | 157 kts | 208° |
| 2026-05-06 19:43 | 42.07034 | -72.22584 | 6488 ft | 157 kts | 207° |
| 2026-05-06 19:43 | 42.06024 | -72.23145 | 6082 ft | 155 kts | 205° |
| 2026-05-06 19:43 | 42.05069 | -72.23695 | 5998 ft | 150 kts | 209° |
| 2026-05-06 19:44 | 42.04101 | -72.24373 | 5999 ft | 161 kts | 212° |
| 2026-05-06 19:44 | 42.03128 | -72.25106 | 6006 ft | 162 kts | 213° |
| 2026-05-06 19:44 | 42.02144 | -72.25860 | 6003 ft | 163 kts | 213° |
| 2026-05-06 19:44 | 42.01157 | -72.26621 | 5996 ft | 163 kts | 213° |
| 2026-05-06 19:45 | 42.00174 | -72.27384 | 6006 ft | 163 kts | 212° |
| 2026-05-06 19:45 | 41.99197 | -72.28137 | 6006 ft | 160 kts | 213° |
| 2026-05-06 19:45 | 41.98239 | -72.28873 | 6005 ft | 157 kts | 212° |
| 2026-05-06 19:45 | 41.97291 | -72.29598 | 6013 ft | 157 kts | 213° |
| 2026-05-06 19:46 | 41.96345 | -72.30325 | 5965 ft | 156 kts | 213° |
| 2026-05-06 19:46 | 41.95393 | -72.31039 | 6001 ft | 157 kts | 213° |
| 2026-05-06 19:46 | 41.94461 | -72.31749 | 6005 ft | 157 kts | 213° |
| 2026-05-06 19:46 | 41.93512 | -72.32480 | 6024 ft | 157 kts | 213° |
| 2026-05-06 19:47 | 41.92563 | -72.33197 | 6023 ft | 155 kts | 213° |
| 2026-05-06 19:47 | 41.91637 | -72.33900 | 6023 ft | 155 kts | 213° |
| 2026-05-06 19:47 | 41.90686 | -72.34630 | 6027 ft | 156 kts | 212° |
| 2026-05-06 19:47 | 41.89738 | -72.35358 | 6013 ft | 158 kts | 213° |
| 2026-05-06 19:48 | 41.88796 | -72.36083 | 6013 ft | 158 kts | 213° |
| 2026-05-06 19:48 | 41.87839 | -72.36813 | 6028 ft | 158 kts | 213° |
| 2026-05-06 19:48 | 41.86883 | -72.37538 | 6034 ft | 158 kts | 213° |
| 2026-05-06 19:48 | 41.85930 | -72.38277 | 6037 ft | 159 kts | 214° |
| 2026-05-06 19:49 | 41.84968 | -72.39019 | 6034 ft | 160 kts | 213° |
| 2026-05-06 19:49 | 41.84001 | -72.39758 | 6009 ft | 159 kts | 212° |
| 2026-05-06 19:49 | 41.83038 | -72.40483 | 6018 ft | 159 kts | 212° |
| 2026-05-06 19:49 | 41.82071 | -72.41206 | 6014 ft | 159 kts | 213° |
| 2026-05-06 19:50 | 41.81109 | -72.41929 | 6002 ft | 160 kts | 212° |
| 2026-05-06 19:50 | 41.80138 | -72.42664 | 6024 ft | 161 kts | 213° |
| 2026-05-06 19:50 | 41.79170 | -72.43417 | 6026 ft | 160 kts | 212° |
| 2026-05-06 19:50 | 41.78204 | -72.44170 | 6019 ft | 161 kts | 212° |